sensor_id;sensor_type;location;lat;lon;timestamp;P1;durP1;ratioP1;P2;durP2;ratioP2
38603;SDS011;24924;50.054;8.790;2023-02-20T00:01:31;9.35;;;4.60;;
38603;SDS011;24924;50.054;8.790;2023-02-20T00:03:57;10.50;;;5.15;;
38603;SDS011;24924;50.054;8.790;2023-02-20T00:06:24;9.38;;;5.45;;
38603;SDS011;24924;50.054;8.790;2023-02-20T00:08:49;9.33;;;5.77;;
38603;SDS011;24924;50.054;8.790;2023-02-20T00:11:16;8.00;;;5.27;;
38603;SDS011;24924;50.054;8.790;2023-02-20T00:13:45;10.48;;;6.40;;
38603;SDS011;24924;50.054;8.790;2023-02-20T00:16:12;9.68;;;6.28;;
38603;SDS011;24924;50.054;8.790;2023-02-20T00:18:38;11.45;;;6.05;;
38603;SDS011;24924;50.054;8.790;2023-02-20T00:21:04;8.53;;;5.40;;
38603;SDS011;24924;50.054;8.790;2023-02-20T00:23:33;10.63;;;5.85;;
38603;SDS011;24924;50.054;8.790;2023-02-20T00:26:00;9.18;;;6.00;;
38603;SDS011;24924;50.054;8.790;2023-02-20T00:28:26;19.80;;;9.00;;
38603;SDS011;24924;50.054;8.790;2023-02-20T00:30:52;16.60;;;8.45;;
38603;SDS011;24924;50.054;8.790;2023-02-20T00:33:18;12.47;;;6.67;;
38603;SDS011;24924;50.054;8.790;2023-02-20T00:35:47;9.02;;;5.68;;
38603;SDS011;24924;50.054;8.790;2023-02-20T00:38:13;12.68;;;6.35;;
38603;SDS011;24924;50.054;8.790;2023-02-20T00:40:41;8.70;;;5.68;;
38603;SDS011;24924;50.054;8.790;2023-02-20T00:43:07;12.97;;;5.77;;
38603;SDS011;24924;50.054;8.790;2023-02-20T00:45:33;12.43;;;5.60;;
38603;SDS011;24924;50.054;8.790;2023-02-20T00:47:59;9.90;;;5.47;;
38603;SDS011;24924;50.054;8.790;2023-02-20T00:50:25;11.32;;;5.60;;
38603;SDS011;24924;50.054;8.790;2023-02-20T00:52:51;10.27;;;5.67;;
38603;SDS011;24924;50.054;8.790;2023-02-20T00:55:18;11.23;;;6.25;;
38603;SDS011;24924;50.054;8.790;2023-02-20T00:57:44;12.73;;;5.75;;
38603;SDS011;24924;50.054;8.790;2023-02-20T01:00:15;8.07;;;5.50;;
38603;SDS011;24924;50.054;8.790;2023-02-20T01:02:46;9.67;;;5.10;;
38603;SDS011;24924;50.054;8.790;2023-02-20T01:05:12;9.07;;;5.80;;
38603;SDS011;24924;50.054;8.790;2023-02-20T01:07:38;12.35;;;5.68;;
38603;SDS011;24924;50.054;8.790;2023-02-20T01:10:06;11.05;;;6.05;;
38603;SDS011;24924;50.054;8.790;2023-02-20T01:12:33;11.27;;;5.50;;
38603;SDS011;24924;50.054;8.790;2023-02-20T01:14:59;10.27;;;5.70;;
38603;SDS011;24924;50.054;8.790;2023-02-20T01:17:27;12.43;;;6.30;;
38603;SDS011;24924;50.054;8.790;2023-02-20T01:19:54;8.75;;;5.30;;
38603;SDS011;24924;50.054;8.790;2023-02-20T01:22:20;10.20;;;5.93;;
38603;SDS011;24924;50.054;8.790;2023-02-20T01:24:47;10.27;;;6.03;;
38603;SDS011;24924;50.054;8.790;2023-02-20T01:27:14;10.20;;;6.03;;
38603;SDS011;24924;50.054;8.790;2023-02-20T01:29:40;10.57;;;5.85;;
38603;SDS011;24924;50.054;8.790;2023-02-20T01:32:06;10.20;;;5.70;;
38603;SDS011;24924;50.054;8.790;2023-02-20T01:34:32;12.98;;;6.95;;
38603;SDS011;24924;50.054;8.790;2023-02-20T01:36:58;13.80;;;6.83;;
38603;SDS011;24924;50.054;8.790;2023-02-20T01:39:26;14.15;;;7.30;;
38603;SDS011;24924;50.054;8.790;2023-02-20T01:41:53;15.93;;;7.28;;
38603;SDS011;24924;50.054;8.790;2023-02-20T01:44:25;12.38;;;6.93;;
38603;SDS011;24924;50.054;8.790;2023-02-20T01:46:53;14.18;;;7.32;;
38603;SDS011;24924;50.054;8.790;2023-02-20T01:52:25;15.32;;;7.70;;
38603;SDS011;24924;50.054;8.790;2023-02-20T01:55:03;12.30;;;6.70;;
38603;SDS011;24924;50.054;8.790;2023-02-20T01:57:37;11.68;;;6.10;;
38603;SDS011;24924;50.054;8.790;2023-02-20T02:00:06;13.30;;;6.65;;
38603;SDS011;24924;50.054;8.790;2023-02-20T02:02:42;14.37;;;7.10;;
38603;SDS011;24924;50.054;8.790;2023-02-20T02:05:12;13.98;;;6.40;;
38603;SDS011;24924;50.054;8.790;2023-02-20T02:07:38;12.05;;;6.88;;
38603;SDS011;24924;50.054;8.790;2023-02-20T02:10:23;10.80;;;6.13;;
38603;SDS011;24924;50.054;8.790;2023-02-20T02:12:55;14.52;;;6.60;;
38603;SDS011;24924;50.054;8.790;2023-02-20T02:15:22;10.30;;;6.30;;
38603;SDS011;24924;50.054;8.790;2023-02-20T02:23:45;11.23;;;6.60;;
38603;SDS011;24924;50.054;8.790;2023-02-20T02:29:55;11.55;;;6.35;;
38603;SDS011;24924;50.054;8.790;2023-02-20T02:32:52;10.52;;;5.93;;
38603;SDS011;24924;50.054;8.790;2023-02-20T02:37:59;13.32;;;6.85;;
38603;SDS011;24924;50.054;8.790;2023-02-20T02:40:30;9.90;;;6.43;;
38603;SDS011;24924;50.054;8.790;2023-02-20T02:43:20;13.38;;;6.63;;
38603;SDS011;24924;50.054;8.790;2023-02-20T02:45:54;13.50;;;6.78;;
38603;SDS011;24924;50.054;8.790;2023-02-20T02:48:44;12.10;;;6.37;;
38603;SDS011;24924;50.054;8.790;2023-02-20T02:51:22;12.20;;;6.55;;
38603;SDS011;24924;50.054;8.790;2023-02-20T02:54:05;11.88;;;6.85;;
38603;SDS011;24924;50.054;8.790;2023-02-20T02:56:33;11.23;;;6.53;;
38603;SDS011;24924;50.054;8.790;2023-02-20T02:59:00;12.32;;;6.68;;
38603;SDS011;24924;50.054;8.790;2023-02-20T03:01:27;10.87;;;6.60;;
38603;SDS011;24924;50.054;8.790;2023-02-20T03:03:57;15.13;;;7.05;;
38603;SDS011;24924;50.054;8.790;2023-02-20T03:06:27;12.85;;;6.93;;
38603;SDS011;24924;50.054;8.790;2023-02-20T03:09:05;12.82;;;6.80;;
38603;SDS011;24924;50.054;8.790;2023-02-20T03:11:36;12.13;;;7.20;;
38603;SDS011;24924;50.054;8.790;2023-02-20T03:17:05;13.82;;;6.63;;
38603;SDS011;24924;50.054;8.790;2023-02-20T03:19:52;12.38;;;6.18;;
38603;SDS011;24924;50.054;8.790;2023-02-20T03:24:49;11.55;;;6.38;;
38603;SDS011;24924;50.054;8.790;2023-02-20T03:27:36;11.07;;;6.20;;
38603;SDS011;24924;50.054;8.790;2023-02-20T03:30:29;13.77;;;6.25;;
38603;SDS011;24924;50.054;8.790;2023-02-20T03:33:04;10.82;;;6.00;;
38603;SDS011;24924;50.054;8.790;2023-02-20T03:35:54;11.43;;;5.75;;
38603;SDS011;24924;50.054;8.790;2023-02-20T03:38:43;12.77;;;6.50;;
38603;SDS011;24924;50.054;8.790;2023-02-20T03:41:31;11.03;;;6.40;;
38603;SDS011;24924;50.054;8.790;2023-02-20T03:44:18;10.10;;;5.65;;
38603;SDS011;24924;50.054;8.790;2023-02-20T03:46:46;12.65;;;6.38;;
38603;SDS011;24924;50.054;8.790;2023-02-20T03:49:18;10.63;;;6.22;;
38603;SDS011;24924;50.054;8.790;2023-02-20T03:51:46;10.77;;;6.15;;
38603;SDS011;24924;50.054;8.790;2023-02-20T03:54:24;11.63;;;5.30;;
38603;SDS011;24924;50.054;8.790;2023-02-20T03:56:53;10.60;;;5.80;;
38603;SDS011;24924;50.054;8.790;2023-02-20T03:59:53;9.77;;;5.60;;
38603;SDS011;24924;50.054;8.790;2023-02-20T04:02:29;12.63;;;6.03;;
38603;SDS011;24924;50.054;8.790;2023-02-20T04:04:59;12.15;;;5.65;;
38603;SDS011;24924;50.054;8.790;2023-02-20T04:07:33;11.73;;;5.60;;
38603;SDS011;24924;50.054;8.790;2023-02-20T04:10:05;12.88;;;6.15;;
38603;SDS011;24924;50.054;8.790;2023-02-20T04:12:39;11.13;;;5.57;;
38603;SDS011;24924;50.054;8.790;2023-02-20T04:15:10;10.73;;;5.28;;
38603;SDS011;24924;50.054;8.790;2023-02-20T04:17:39;11.13;;;5.47;;
38603;SDS011;24924;50.054;8.790;2023-02-20T04:20:10;13.70;;;5.73;;
38603;SDS011;24924;50.054;8.790;2023-02-20T04:22:44;12.57;;;5.60;;
38603;SDS011;24924;50.054;8.790;2023-02-20T04:28:15;10.60;;;5.65;;
38603;SDS011;24924;50.054;8.790;2023-02-20T04:30:54;12.70;;;5.95;;
38603;SDS011;24924;50.054;8.790;2023-02-20T04:33:20;8.77;;;5.33;;
38603;SDS011;24924;50.054;8.790;2023-02-20T04:35:48;11.73;;;5.40;;
38603;SDS011;24924;50.054;8.790;2023-02-20T04:38:14;12.38;;;6.00;;
38603;SDS011;24924;50.054;8.790;2023-02-20T04:40:40;13.73;;;5.80;;
38603;SDS011;24924;50.054;8.790;2023-02-20T04:43:06;8.90;;;5.45;;
38603;SDS011;24924;50.054;8.790;2023-02-20T04:45:33;9.87;;;5.70;;
38603;SDS011;24924;50.054;8.790;2023-02-20T04:47:59;9.65;;;5.22;;
38603;SDS011;24924;50.054;8.790;2023-02-20T04:50:27;9.85;;;5.18;;
38603;SDS011;24924;50.054;8.790;2023-02-20T04:52:57;12.18;;;6.10;;
38603;SDS011;24924;50.054;8.790;2023-02-20T04:55:24;11.55;;;5.57;;
38603;SDS011;24924;50.054;8.790;2023-02-20T04:57:53;9.20;;;5.30;;
38603;SDS011;24924;50.054;8.790;2023-02-20T05:00:23;9.60;;;5.20;;
38603;SDS011;24924;50.054;8.790;2023-02-20T05:02:50;15.35;;;5.95;;
38603;SDS011;24924;50.054;8.790;2023-02-20T05:05:18;13.98;;;5.53;;
38603;SDS011;24924;50.054;8.790;2023-02-20T05:07:48;10.57;;;5.32;;
38603;SDS011;24924;50.054;8.790;2023-02-20T05:10:22;13.50;;;6.00;;
38603;SDS011;24924;50.054;8.790;2023-02-20T05:12:48;10.38;;;5.53;;
38603;SDS011;24924;50.054;8.790;2023-02-20T05:15:15;12.15;;;5.57;;
38603;SDS011;24924;50.054;8.790;2023-02-20T05:17:40;11.73;;;5.65;;
38603;SDS011;24924;50.054;8.790;2023-02-20T05:20:06;15.10;;;6.40;;
38603;SDS011;24924;50.054;8.790;2023-02-20T05:22:33;9.90;;;5.80;;
38603;SDS011;24924;50.054;8.790;2023-02-20T05:24:59;10.10;;;5.95;;
38603;SDS011;24924;50.054;8.790;2023-02-20T05:27:25;13.63;;;6.53;;
38603;SDS011;24924;50.054;8.790;2023-02-20T05:29:53;13.57;;;5.70;;
38603;SDS011;24924;50.054;8.790;2023-02-20T05:32:22;11.43;;;6.27;;
38603;SDS011;24924;50.054;8.790;2023-02-20T05:34:49;14.82;;;6.60;;
38603;SDS011;24924;50.054;8.790;2023-02-20T05:37:16;11.50;;;6.07;;
38603;SDS011;24924;50.054;8.790;2023-02-20T05:39:44;13.68;;;6.50;;
38603;SDS011;24924;50.054;8.790;2023-02-20T05:42:10;12.90;;;6.15;;
38603;SDS011;24924;50.054;8.790;2023-02-20T05:44:37;10.83;;;5.90;;
38603;SDS011;24924;50.054;8.790;2023-02-20T05:47:04;12.20;;;5.88;;
38603;SDS011;24924;50.054;8.790;2023-02-20T05:49:30;13.05;;;6.72;;
38603;SDS011;24924;50.054;8.790;2023-02-20T05:51:56;12.35;;;5.85;;
38603;SDS011;24924;50.054;8.790;2023-02-20T05:54:23;10.77;;;6.28;;
38603;SDS011;24924;50.054;8.790;2023-02-20T05:56:49;12.77;;;5.53;;
38603;SDS011;24924;50.054;8.790;2023-02-20T05:59:16;12.95;;;5.65;;
38603;SDS011;24924;50.054;8.790;2023-02-20T06:01:47;12.63;;;6.30;;
38603;SDS011;24924;50.054;8.790;2023-02-20T06:04:17;11.93;;;6.25;;
38603;SDS011;24924;50.054;8.790;2023-02-20T06:06:43;16.20;;;6.50;;
38603;SDS011;24924;50.054;8.790;2023-02-20T06:09:10;14.00;;;6.70;;
38603;SDS011;24924;50.054;8.790;2023-02-20T06:11:37;12.18;;;6.65;;
38603;SDS011;24924;50.054;8.790;2023-02-20T06:14:04;14.85;;;6.20;;
38603;SDS011;24924;50.054;8.790;2023-02-20T06:16:31;14.77;;;6.47;;
38603;SDS011;24924;50.054;8.790;2023-02-20T06:18:58;12.20;;;6.50;;
38603;SDS011;24924;50.054;8.790;2023-02-20T06:21:25;14.87;;;6.60;;
38603;SDS011;24924;50.054;8.790;2023-02-20T06:23:51;11.35;;;6.75;;
38603;SDS011;24924;50.054;8.790;2023-02-20T06:26:19;13.88;;;6.57;;
38603;SDS011;24924;50.054;8.790;2023-02-20T06:28:45;18.02;;;7.40;;
38603;SDS011;24924;50.054;8.790;2023-02-20T06:31:25;15.20;;;7.43;;
38603;SDS011;24924;50.054;8.790;2023-02-20T06:33:52;14.77;;;6.70;;
38603;SDS011;24924;50.054;8.790;2023-02-20T06:36:20;15.85;;;7.22;;
38603;SDS011;24924;50.054;8.790;2023-02-20T06:38:48;15.20;;;7.60;;
38603;SDS011;24924;50.054;8.790;2023-02-20T06:41:14;15.07;;;6.80;;
38603;SDS011;24924;50.054;8.790;2023-02-20T06:43:40;13.20;;;6.57;;
38603;SDS011;24924;50.054;8.790;2023-02-20T06:46:06;15.20;;;7.30;;
38603;SDS011;24924;50.054;8.790;2023-02-20T06:48:32;13.60;;;7.10;;
38603;SDS011;24924;50.054;8.790;2023-02-20T06:50:59;11.75;;;6.40;;
38603;SDS011;24924;50.054;8.790;2023-02-20T06:53:25;13.77;;;7.32;;
38603;SDS011;24924;50.054;8.790;2023-02-20T06:55:51;15.77;;;7.63;;
38603;SDS011;24924;50.054;8.790;2023-02-20T06:58:17;16.50;;;6.97;;
38603;SDS011;24924;50.054;8.790;2023-02-20T07:00:43;12.98;;;7.07;;
38603;SDS011;24924;50.054;8.790;2023-02-20T07:03:09;16.67;;;7.03;;
38603;SDS011;24924;50.054;8.790;2023-02-20T07:05:35;15.17;;;7.10;;
38603;SDS011;24924;50.054;8.790;2023-02-20T07:08:01;15.25;;;8.18;;
38603;SDS011;24924;50.054;8.790;2023-02-20T07:10:27;16.50;;;8.20;;
38603;SDS011;24924;50.054;8.790;2023-02-20T07:12:52;13.03;;;8.30;;
38603;SDS011;24924;50.054;8.790;2023-02-20T07:15:19;14.60;;;7.90;;
38603;SDS011;24924;50.054;8.790;2023-02-20T07:17:45;11.20;;;7.07;;
38603;SDS011;24924;50.054;8.790;2023-02-20T07:20:13;14.00;;;7.37;;
38603;SDS011;24924;50.054;8.790;2023-02-20T07:22:39;11.20;;;6.80;;
38603;SDS011;24924;50.054;8.790;2023-02-20T07:25:14;13.05;;;7.10;;
38603;SDS011;24924;50.054;8.790;2023-02-20T07:27:40;13.80;;;8.27;;
38603;SDS011;24924;50.054;8.790;2023-02-20T07:30:06;15.43;;;7.10;;
38603;SDS011;24924;50.054;8.790;2023-02-20T07:32:32;16.02;;;8.13;;
38603;SDS011;24924;50.054;8.790;2023-02-20T07:34:58;15.03;;;7.30;;
38603;SDS011;24924;50.054;8.790;2023-02-20T07:37:24;11.88;;;7.35;;
38603;SDS011;24924;50.054;8.790;2023-02-20T07:39:51;15.33;;;7.23;;
38603;SDS011;24924;50.054;8.790;2023-02-20T07:42:17;12.63;;;7.20;;
38603;SDS011;24924;50.054;8.790;2023-02-20T07:44:47;16.38;;;8.65;;
38603;SDS011;24924;50.054;8.790;2023-02-20T07:47:14;13.65;;;6.40;;
38603;SDS011;24924;50.054;8.790;2023-02-20T07:49:40;15.95;;;6.95;;
38603;SDS011;24924;50.054;8.790;2023-02-20T07:52:06;12.77;;;7.23;;
38603;SDS011;24924;50.054;8.790;2023-02-20T07:54:32;13.13;;;7.07;;
38603;SDS011;24924;50.054;8.790;2023-02-20T07:56:58;9.57;;;5.90;;
38603;SDS011;24924;50.054;8.790;2023-02-20T07:59:24;12.65;;;6.72;;
38603;SDS011;24924;50.054;8.790;2023-02-20T08:01:50;14.55;;;6.20;;
38603;SDS011;24924;50.054;8.790;2023-02-20T08:04:17;13.83;;;7.13;;
38603;SDS011;24924;50.054;8.790;2023-02-20T08:06:43;13.38;;;7.05;;
38603;SDS011;24924;50.054;8.790;2023-02-20T08:09:09;11.75;;;6.47;;
38603;SDS011;24924;50.054;8.790;2023-02-20T08:11:36;15.07;;;7.72;;
38603;SDS011;24924;50.054;8.790;2023-02-20T08:14:02;14.80;;;7.68;;
38603;SDS011;24924;50.054;8.790;2023-02-20T08:16:29;13.80;;;6.30;;
38603;SDS011;24924;50.054;8.790;2023-02-20T08:18:55;10.68;;;5.90;;
38603;SDS011;24924;50.054;8.790;2023-02-20T08:21:21;15.60;;;8.10;;
38603;SDS011;24924;50.054;8.790;2023-02-20T08:23:47;12.73;;;7.03;;
38603;SDS011;24924;50.054;8.790;2023-02-20T08:26:14;14.35;;;7.10;;
38603;SDS011;24924;50.054;8.790;2023-02-20T08:28:39;10.43;;;6.60;;
38603;SDS011;24924;50.054;8.790;2023-02-20T08:31:06;14.20;;;6.50;;
38603;SDS011;24924;50.054;8.790;2023-02-20T08:33:32;16.13;;;8.93;;
38603;SDS011;24924;50.054;8.790;2023-02-20T08:35:58;16.53;;;7.70;;
38603;SDS011;24924;50.054;8.790;2023-02-20T08:40:50;15.02;;;8.55;;
38603;SDS011;24924;50.054;8.790;2023-02-20T08:43:16;16.45;;;8.20;;
38603;SDS011;24924;50.054;8.790;2023-02-20T08:45:42;16.52;;;8.40;;
38603;SDS011;24924;50.054;8.790;2023-02-20T08:48:08;20.87;;;9.23;;
38603;SDS011;24924;50.054;8.790;2023-02-20T08:50:33;13.10;;;6.95;;
38603;SDS011;24924;50.054;8.790;2023-02-20T08:53:00;14.77;;;7.83;;
38603;SDS011;24924;50.054;8.790;2023-02-20T08:55:26;15.07;;;7.47;;
38603;SDS011;24924;50.054;8.790;2023-02-20T08:57:52;14.82;;;7.95;;
38603;SDS011;24924;50.054;8.790;2023-02-20T09:00:17;11.53;;;7.10;;
38603;SDS011;24924;50.054;8.790;2023-02-20T09:02:45;11.55;;;6.88;;
38603;SDS011;24924;50.054;8.790;2023-02-20T09:05:12;17.90;;;8.45;;
38603;SDS011;24924;50.054;8.790;2023-02-20T09:07:38;15.50;;;7.90;;
38603;SDS011;24924;50.054;8.790;2023-02-20T09:10:04;11.85;;;7.22;;
38603;SDS011;24924;50.054;8.790;2023-02-20T09:12:30;14.48;;;7.72;;
38603;SDS011;24924;50.054;8.790;2023-02-20T09:14:57;15.60;;;8.38;;
38603;SDS011;24924;50.054;8.790;2023-02-20T09:17:27;14.87;;;7.60;;
38603;SDS011;24924;50.054;8.790;2023-02-20T09:19:53;16.33;;;7.40;;
38603;SDS011;24924;50.054;8.790;2023-02-20T09:22:23;15.23;;;7.78;;
38603;SDS011;24924;50.054;8.790;2023-02-20T09:24:50;15.70;;;7.55;;
38603;SDS011;24924;50.054;8.790;2023-02-20T09:27:17;15.00;;;7.82;;
38603;SDS011;24924;50.054;8.790;2023-02-20T09:29:43;12.20;;;6.80;;
38603;SDS011;24924;50.054;8.790;2023-02-20T09:32:09;16.77;;;7.65;;
38603;SDS011;24924;50.054;8.790;2023-02-20T09:34:36;17.13;;;7.80;;
38603;SDS011;24924;50.054;8.790;2023-02-20T09:37:02;15.30;;;7.73;;
38603;SDS011;24924;50.054;8.790;2023-02-20T09:39:29;13.10;;;6.82;;
38603;SDS011;24924;50.054;8.790;2023-02-20T09:44:26;13.60;;;7.13;;
38603;SDS011;24924;50.054;8.790;2023-02-20T09:47:07;15.27;;;7.30;;
38603;SDS011;24924;50.054;8.790;2023-02-20T09:49:48;17.65;;;7.60;;
38603;SDS011;24924;50.054;8.790;2023-02-20T09:52:14;13.50;;;7.35;;
38603;SDS011;24924;50.054;8.790;2023-02-20T09:54:44;14.70;;;8.07;;
38603;SDS011;24924;50.054;8.790;2023-02-20T09:57:19;14.50;;;7.20;;
38603;SDS011;24924;50.054;8.790;2023-02-20T09:59:51;14.15;;;7.50;;
38603;SDS011;24924;50.054;8.790;2023-02-20T10:02:24;10.85;;;6.82;;
38603;SDS011;24924;50.054;8.790;2023-02-20T10:04:57;13.48;;;7.38;;
38603;SDS011;24924;50.054;8.790;2023-02-20T10:07:32;16.58;;;9.20;;
38603;SDS011;24924;50.054;8.790;2023-02-20T10:10:16;15.33;;;7.30;;
38603;SDS011;24924;50.054;8.790;2023-02-20T10:12:51;14.75;;;7.80;;
38603;SDS011;24924;50.054;8.790;2023-02-20T10:21:27;15.02;;;8.10;;
38603;SDS011;24924;50.054;8.790;2023-02-20T10:24:15;15.83;;;7.60;;
38603;SDS011;24924;50.054;8.790;2023-02-20T10:26:46;14.68;;;7.70;;
38603;SDS011;24924;50.054;8.790;2023-02-20T10:29:20;17.23;;;7.72;;
38603;SDS011;24924;50.054;8.790;2023-02-20T10:31:56;13.57;;;7.35;;
38603;SDS011;24924;50.054;8.790;2023-02-20T10:34:29;11.73;;;6.60;;
38603;SDS011;24924;50.054;8.790;2023-02-20T10:37:06;11.73;;;7.00;;
38603;SDS011;24924;50.054;8.790;2023-02-20T10:39:35;13.32;;;7.95;;
38603;SDS011;24924;50.054;8.790;2023-02-20T10:52:35;15.20;;;7.38;;
38603;SDS011;24924;50.054;8.790;2023-02-20T10:55:20;15.88;;;7.47;;
38603;SDS011;24924;50.054;8.790;2023-02-20T10:58:02;15.93;;;7.32;;
38603;SDS011;24924;50.054;8.790;2023-02-20T11:00:35;12.98;;;7.88;;
38603;SDS011;24924;50.054;8.790;2023-02-20T11:03:07;14.13;;;7.80;;
38603;SDS011;24924;50.054;8.790;2023-02-20T11:05:44;14.93;;;8.63;;
38603;SDS011;24924;50.054;8.790;2023-02-20T11:08:14;13.80;;;7.95;;
38603;SDS011;24924;50.054;8.790;2023-02-20T11:10:48;13.10;;;7.78;;
38603;SDS011;24924;50.054;8.790;2023-02-20T11:13:17;17.52;;;7.97;;
38603;SDS011;24924;50.054;8.790;2023-02-20T11:15:47;13.87;;;7.77;;
38603;SDS011;24924;50.054;8.790;2023-02-20T11:18:25;13.80;;;7.95;;
38603;SDS011;24924;50.054;8.790;2023-02-20T11:20:56;12.02;;;7.05;;
38603;SDS011;24924;50.054;8.790;2023-02-20T11:23:41;12.35;;;7.55;;
38603;SDS011;24924;50.054;8.790;2023-02-20T11:26:41;16.38;;;7.90;;
38603;SDS011;24924;50.054;8.790;2023-02-20T11:29:04;16.77;;;7.23;;
38603;SDS011;24924;50.054;8.790;2023-02-20T11:31:37;13.65;;;7.40;;
38603;SDS011;24924;50.054;8.790;2023-02-20T11:34:03;19.23;;;8.63;;
38603;SDS011;24924;50.054;8.790;2023-02-20T11:36:32;13.25;;;7.47;;
38603;SDS011;24924;50.054;8.790;2023-02-20T11:39:09;12.88;;;7.05;;
38603;SDS011;24924;50.054;8.790;2023-02-20T11:41:43;12.90;;;6.97;;
38603;SDS011;24924;50.054;8.790;2023-02-20T11:46:37;14.10;;;6.03;;
38603;SDS011;24924;50.054;8.790;2023-02-20T11:49:46;11.40;;;6.22;;
38603;SDS011;24924;50.054;8.790;2023-02-20T11:52:05;12.70;;;6.33;;
38603;SDS011;24924;50.054;8.790;2023-02-20T11:54:47;12.98;;;6.40;;
38603;SDS011;24924;50.054;8.790;2023-02-20T11:57:35;10.77;;;5.82;;
38603;SDS011;24924;50.054;8.790;2023-02-20T12:00:15;9.95;;;5.55;;
38603;SDS011;24924;50.054;8.790;2023-02-20T12:02:50;11.73;;;5.88;;
38603;SDS011;24924;50.054;8.790;2023-02-20T12:11:18;11.30;;;5.68;;
38603;SDS011;24924;50.054;8.790;2023-02-20T12:13:47;10.23;;;5.57;;
38603;SDS011;24924;50.054;8.790;2023-02-20T12:35:32;13.05;;;5.75;;
38603;SDS011;24924;50.054;8.790;2023-02-20T12:40:38;9.35;;;4.72;;
38603;SDS011;24924;50.054;8.790;2023-02-20T12:59:27;9.93;;;5.90;;
38603;SDS011;24924;50.054;8.790;2023-02-20T13:02:02;9.52;;;5.03;;
38603;SDS011;24924;50.054;8.790;2023-02-20T13:04:53;10.00;;;5.60;;
38603;SDS011;24924;50.054;8.790;2023-02-20T13:07:27;9.82;;;5.30;;
38603;SDS011;24924;50.054;8.790;2023-02-20T13:12:38;10.97;;;5.10;;
38603;SDS011;24924;50.054;8.790;2023-02-20T13:15:06;7.72;;;4.55;;
38603;SDS011;24924;50.054;8.790;2023-02-20T13:20:25;9.63;;;5.78;;
38603;SDS011;24924;50.054;8.790;2023-02-20T13:28:05;9.52;;;5.00;;
38603;SDS011;24924;50.054;8.790;2023-02-20T13:30:44;11.73;;;6.00;;
38603;SDS011;24924;50.054;8.790;2023-02-20T13:33:20;9.88;;;5.35;;
38603;SDS011;24924;50.054;8.790;2023-02-20T13:35:51;9.73;;;5.17;;
38603;SDS011;24924;50.054;8.790;2023-02-20T13:38:20;9.90;;;4.70;;
38603;SDS011;24924;50.054;8.790;2023-02-20T13:53:47;10.70;;;4.97;;
38603;SDS011;24924;50.054;8.790;2023-02-20T13:58:47;8.87;;;4.47;;
38603;SDS011;24924;50.054;8.790;2023-02-20T14:01:14;8.05;;;4.60;;
38603;SDS011;24924;50.054;8.790;2023-02-20T14:03:40;9.00;;;4.10;;
38603;SDS011;24924;50.054;8.790;2023-02-20T14:06:08;10.15;;;4.60;;
38603;SDS011;24924;50.054;8.790;2023-02-20T14:08:39;7.38;;;4.45;;
38603;SDS011;24924;50.054;8.790;2023-02-20T14:11:08;8.80;;;4.30;;
38603;SDS011;24924;50.054;8.790;2023-02-20T14:13:36;9.63;;;4.20;;
38603;SDS011;24924;50.054;8.790;2023-02-20T14:16:20;8.35;;;3.90;;
38603;SDS011;24924;50.054;8.790;2023-02-20T14:18:50;8.98;;;3.80;;
38603;SDS011;24924;50.054;8.790;2023-02-20T14:21:17;7.25;;;4.10;;
38603;SDS011;24924;50.054;8.790;2023-02-20T14:23:45;8.97;;;4.03;;
38603;SDS011;24924;50.054;8.790;2023-02-20T14:26:26;10.88;;;4.40;;
38603;SDS011;24924;50.054;8.790;2023-02-20T14:28:57;8.65;;;3.75;;
38603;SDS011;24924;50.054;8.790;2023-02-20T14:36:38;8.47;;;3.27;;
38603;SDS011;24924;50.054;8.790;2023-02-20T14:39:37;9.35;;;3.95;;
38603;SDS011;24924;50.054;8.790;2023-02-20T14:42:18;9.20;;;3.80;;
38603;SDS011;24924;50.054;8.790;2023-02-20T14:44:49;9.05;;;3.67;;
38603;SDS011;24924;50.054;8.790;2023-02-20T14:47:23;12.63;;;4.05;;
38603;SDS011;24924;50.054;8.790;2023-02-20T14:49:49;11.03;;;4.27;;
38603;SDS011;24924;50.054;8.790;2023-02-20T14:52:18;9.50;;;3.80;;
38603;SDS011;24924;50.054;8.790;2023-02-20T14:54:55;8.98;;;3.75;;
38603;SDS011;24924;50.054;8.790;2023-02-20T14:57:22;8.23;;;3.78;;
38603;SDS011;24924;50.054;8.790;2023-02-20T14:59:49;9.10;;;3.80;;
38603;SDS011;24924;50.054;8.790;2023-02-20T15:02:19;10.60;;;4.07;;
38603;SDS011;24924;50.054;8.790;2023-02-20T15:07:13;8.43;;;3.85;;
38603;SDS011;24924;50.054;8.790;2023-02-20T15:09:41;10.07;;;3.50;;
38603;SDS011;24924;50.054;8.790;2023-02-20T15:12:22;8.35;;;3.83;;
38603;SDS011;24924;50.054;8.790;2023-02-20T15:14:57;6.00;;;3.05;;
38603;SDS011;24924;50.054;8.790;2023-02-20T15:17:29;11.13;;;3.03;;
38603;SDS011;24924;50.054;8.790;2023-02-20T15:19:57;6.35;;;3.13;;
38603;SDS011;24924;50.054;8.790;2023-02-20T15:28:09;9.15;;;2.92;;
38603;SDS011;24924;50.054;8.790;2023-02-20T15:33:53;9.87;;;3.20;;
38603;SDS011;24924;50.054;8.790;2023-02-20T15:36:20;7.85;;;2.83;;
38603;SDS011;24924;50.054;8.790;2023-02-20T15:38:54;7.25;;;3.10;;
38603;SDS011;24924;50.054;8.790;2023-02-20T15:41:22;6.88;;;3.10;;
38603;SDS011;24924;50.054;8.790;2023-02-20T15:43:48;7.03;;;2.88;;
38603;SDS011;24924;50.054;8.790;2023-02-20T15:46:15;8.33;;;3.20;;
38603;SDS011;24924;50.054;8.790;2023-02-20T15:48:41;9.90;;;2.85;;
38603;SDS011;24924;50.054;8.790;2023-02-20T15:51:08;6.00;;;3.10;;
38603;SDS011;24924;50.054;8.790;2023-02-20T15:53:35;6.55;;;2.83;;
38603;SDS011;24924;50.054;8.790;2023-02-20T15:56:02;7.28;;;3.15;;
38603;SDS011;24924;50.054;8.790;2023-02-20T15:58:33;8.63;;;2.90;;
38603;SDS011;24924;50.054;8.790;2023-02-20T16:01:02;8.10;;;2.90;;
38603;SDS011;24924;50.054;8.790;2023-02-20T16:03:29;7.05;;;3.03;;
38603;SDS011;24924;50.054;8.790;2023-02-20T16:05:56;6.22;;;3.00;;
38603;SDS011;24924;50.054;8.790;2023-02-20T16:08:23;7.07;;;3.30;;
38603;SDS011;24924;50.054;8.790;2023-02-20T16:10:49;6.20;;;2.93;;
38603;SDS011;24924;50.054;8.790;2023-02-20T16:13:21;7.07;;;3.13;;
38603;SDS011;24924;50.054;8.790;2023-02-20T16:15:56;8.32;;;3.20;;
38603;SDS011;24924;50.054;8.790;2023-02-20T16:18:22;8.65;;;3.20;;
38603;SDS011;24924;50.054;8.790;2023-02-20T16:20:49;6.28;;;3.10;;
38603;SDS011;24924;50.054;8.790;2023-02-20T16:23:16;5.90;;;3.00;;
38603;SDS011;24924;50.054;8.790;2023-02-20T16:25:42;5.88;;;2.90;;
38603;SDS011;24924;50.054;8.790;2023-02-20T16:28:10;5.68;;;2.67;;
38603;SDS011;24924;50.054;8.790;2023-02-20T16:30:38;6.45;;;3.17;;
38603;SDS011;24924;50.054;8.790;2023-02-20T16:33:15;7.07;;;2.85;;
38603;SDS011;24924;50.054;8.790;2023-02-20T16:35:46;4.70;;;2.73;;
38603;SDS011;24924;50.054;8.790;2023-02-20T16:38:13;7.40;;;3.05;;
38603;SDS011;24924;50.054;8.790;2023-02-20T16:40:39;6.82;;;3.28;;
38603;SDS011;24924;50.054;8.790;2023-02-20T16:43:05;8.18;;;2.85;;
38603;SDS011;24924;50.054;8.790;2023-02-20T16:45:32;6.55;;;2.88;;
38603;SDS011;24924;50.054;8.790;2023-02-20T16:47:58;10.53;;;3.13;;
38603;SDS011;24924;50.054;8.790;2023-02-20T16:50:25;6.25;;;2.72;;
38603;SDS011;24924;50.054;8.790;2023-02-20T16:52:57;8.60;;;3.30;;
38603;SDS011;24924;50.054;8.790;2023-02-20T16:55:33;9.57;;;2.72;;
38603;SDS011;24924;50.054;8.790;2023-02-20T16:58:01;6.57;;;3.20;;
38603;SDS011;24924;50.054;8.790;2023-02-20T17:00:29;5.50;;;2.90;;
38603;SDS011;24924;50.054;8.790;2023-02-20T17:03:06;9.35;;;2.97;;
38603;SDS011;24924;50.054;8.790;2023-02-20T17:05:33;8.07;;;3.05;;
38603;SDS011;24924;50.054;8.790;2023-02-20T17:08:01;6.68;;;2.90;;
38603;SDS011;24924;50.054;8.790;2023-02-20T17:10:28;6.95;;;3.20;;